createdAt,value
2022-08-14T00:02:14.866Z,52.28
2022-08-14T00:04:44.966Z,52.82
2022-08-14T00:07:14.025Z,53.58
2022-08-14T00:09:56.224Z,55.04
2022-08-14T00:12:48.280Z,56.64
2022-08-14T00:15:27.144Z,57.08
2022-08-14T00:17:57.894Z,57.77
2022-08-14T00:20:30.556Z,57.99
2022-08-14T00:23:08.392Z,57.92
2022-08-14T00:25:43.298Z,58.55
2022-08-14T00:28:28.984Z,58.85
2022-08-14T00:30:58.206Z,58.60
2022-08-14T00:33:49.247Z,58.50
2022-08-14T00:36:34.911Z,59.10
2022-08-14T00:39:03.669Z,59.27
2022-08-14T00:41:34.492Z,58.89
2022-08-14T00:44:01.851Z,58.95
2022-08-14T00:46:32.617Z,59.07
2022-08-14T00:49:02.245Z,59.13
2022-08-14T00:51:36.853Z,58.83
2022-08-14T00:54:16.827Z,58.46
2022-08-14T00:56:50.475Z,58.27
2022-08-14T00:59:17.821Z,58.28
2022-08-14T01:01:46.111Z,58.46
2022-08-14T01:04:51.912Z,58.29
2022-08-14T01:07:07.377Z,58.23
2022-08-14T01:09:35.885Z,58.25
2022-08-14T01:12:03.811Z,57.85
2022-08-14T01:14:31.359Z,58.18
2022-08-14T01:16:59.973Z,58.40
2022-08-14T01:19:46.693Z,58.48
2022-08-14T01:22:18.782Z,58.36
2022-08-14T01:24:47.123Z,58.52
2022-08-14T01:27:18.125Z,58.77
2022-08-14T01:30:03.201Z,58.93
2022-08-14T01:32:37.285Z,58.53
2022-08-14T01:35:18.268Z,58.93
2022-08-14T01:37:57.559Z,59.89
2022-08-14T01:40:37.214Z,60.18
2022-08-14T01:43:15.868Z,59.68
2022-08-14T01:45:57.995Z,59.15
2022-08-14T01:48:37.015Z,59.58
2022-08-14T01:51:20.102Z,59.17
2022-08-14T01:53:54.597Z,59.58
2022-08-14T01:56:39.717Z,59.18
2022-08-14T01:59:22.116Z,59.38
2022-08-14T02:01:58.209Z,59.70
2022-08-14T02:04:55.581Z,59.79
2022-08-14T02:07:15.842Z,59.78
2022-08-14T02:09:43.335Z,60.00
2022-08-14T02:12:10.706Z,60.19
2022-08-14T02:14:50.843Z,59.39
2022-08-14T02:17:28.806Z,59.68
2022-08-14T02:19:58.500Z,60.02
2022-08-14T02:22:28.649Z,60.23
2022-08-14T02:25:00.602Z,60.80
2022-08-14T02:28:22.589Z,60.65
2022-08-14T02:30:16.647Z,60.29
2022-08-14T02:32:45.890Z,60.41
2022-08-14T02:35:21.936Z,60.95
2022-08-14T02:37:49.978Z,60.55
2022-08-14T02:40:18.507Z,61.36
2022-08-14T02:42:54.201Z,61.55
2022-08-14T02:45:23.854Z,61.14
2022-08-14T02:47:57.305Z,61.03
2022-08-14T02:50:27.081Z,61.10
2022-08-14T02:52:56.000Z,60.92
2022-08-14T02:55:25.218Z,61.52
2022-08-14T02:58:02.869Z,60.86
2022-08-14T03:00:32.088Z,61.23
2022-08-14T03:02:59.796Z,61.55
2022-08-14T03:05:35.895Z,61.69
2022-08-14T03:08:08.206Z,61.75
2022-08-14T03:10:37.058Z,61.91
2022-08-14T03:13:19.123Z,62.02
2022-08-14T03:15:51.014Z,61.95
2022-08-14T03:18:31.828Z,61.94
2022-08-14T03:21:03.274Z,61.74
2022-08-14T03:23:38.010Z,62.07
2022-08-14T03:26:08.668Z,61.88
2022-08-14T03:28:42.242Z,61.74
2022-08-14T03:31:13.313Z,61.83
2022-08-14T03:33:41.205Z,62.10
2022-08-14T03:37:50.722Z,62.14
2022-08-14T03:39:12.834Z,62.36
2022-08-14T03:41:45.584Z,63.00
2022-08-14T03:45:20.349Z,63.91
2022-08-14T03:47:00.086Z,63.88
2022-08-14T03:49:30.612Z,63.52
2022-08-14T03:52:00.552Z,63.19
2022-08-14T03:54:28.988Z,63.37
2022-08-14T03:57:00.823Z,63.62
2022-08-14T03:59:31.604Z,63.34
2022-08-14T04:02:01.928Z,63.52
2022-08-14T04:04:30.563Z,63.03
2022-08-14T04:06:59.428Z,62.98
2022-08-14T04:09:27.380Z,63.04
2022-08-14T04:11:55.952Z,63.08
2022-08-14T04:14:23.893Z,63.15
2022-08-14T04:16:51.564Z,62.79
2022-08-14T04:19:22.530Z,62.57
2022-08-14T04:22:02.459Z,62.44
2022-08-14T04:24:37.812Z,62.14
2022-08-14T04:27:10.004Z,61.81
2022-08-14T04:29:38.407Z,61.67
2022-08-14T04:32:58.270Z,61.81
2022-08-14T04:34:55.739Z,62.36
2022-08-14T04:37:42.741Z,61.98
2022-08-14T04:40:29.293Z,61.80
2022-08-14T04:43:17.111Z,61.87
2022-08-14T04:45:44.927Z,61.99
2022-08-14T04:48:13.765Z,62.19
2022-08-14T04:51:01.801Z,62.51
2022-08-14T04:53:34.921Z,62.48
2022-08-14T04:56:06.111Z,62.86
2022-08-14T04:58:57.534Z,62.99
2022-08-14T05:01:25.637Z,63.05
2022-08-14T05:03:53.402Z,63.08
2022-08-14T05:06:37.890Z,62.86
2022-08-14T05:09:07.228Z,63.03
2022-08-14T05:11:37.813Z,63.54
2022-08-14T05:14:42.112Z,64.19
2022-08-14T05:16:53.120Z,63.97
2022-08-14T05:19:26.597Z,64.35
2022-08-14T05:22:15.775Z,64.67
2022-08-14T05:24:48.796Z,64.77
2022-08-14T05:27:19.943Z,63.95
2022-08-14T05:29:56.962Z,64.01
2022-08-14T05:32:27.407Z,62.65
2022-08-14T05:34:58.306Z,62.31
2022-08-14T05:37:27.324Z,62.90
2022-08-14T05:39:55.601Z,62.71
2022-08-14T05:42:27.022Z,62.45
2022-08-14T05:44:56.839Z,62.78
2022-08-14T05:47:28.759Z,63.53
2022-08-14T05:50:02.019Z,64.03
2022-08-14T05:52:38.927Z,65.03
2022-08-14T05:55:08.434Z,64.08
2022-08-14T05:57:45.817Z,63.94
2022-08-14T06:00:13.632Z,63.37
2022-08-14T06:03:00.106Z,62.88
2022-08-14T06:05:28.834Z,62.38
2022-08-14T06:08:00.064Z,62.27
2022-08-14T06:10:29.094Z,61.74
2022-08-14T06:12:58.126Z,61.83
2022-08-14T06:15:29.922Z,63.09
2022-08-14T06:17:59.049Z,62.52
2022-08-14T06:20:28.155Z,61.21
2022-08-14T06:22:56.347Z,61.09
2022-08-14T06:25:24.869Z,60.81
2022-08-14T06:27:52.378Z,60.70
2022-08-14T06:30:21.376Z,59.72
2022-08-14T06:32:52.772Z,58.89
2022-08-14T06:35:20.950Z,60.35
2022-08-14T06:37:52.309Z,60.09
2022-08-14T06:40:27.367Z,59.05
2022-08-14T06:43:00.126Z,59.08
2022-08-14T06:45:31.532Z,58.11
2022-08-14T06:47:59.336Z,55.35
2022-08-14T06:50:28.706Z,55.83
2022-08-14T06:52:58.444Z,55.87
2022-08-14T06:55:27.923Z,55.79
2022-08-14T06:57:57.515Z,54.93
2022-08-14T07:00:27.211Z,53.50
2022-08-14T07:03:14.208Z,52.44
2022-08-14T07:05:55.529Z,51.33
2022-08-14T07:08:29.700Z,51.71
2022-08-14T07:11:00.800Z,51.53
2022-08-14T07:13:28.521Z,52.21
2022-08-14T07:15:58.839Z,52.30
2022-08-14T07:18:28.961Z,52.98
2022-08-14T07:20:57.447Z,52.32
2022-08-14T07:23:25.870Z,52.86
2022-08-14T07:25:54.669Z,52.49
2022-08-14T07:28:23.905Z,52.47
2022-08-14T07:30:56.213Z,50.73
2022-08-14T07:33:29.851Z,51.08
2022-08-14T07:35:59.468Z,50.78
2022-08-14T07:38:33.997Z,50.04
2022-08-14T07:41:11.691Z,49.08
2022-08-14T07:43:52.897Z,49.08
2022-08-14T07:46:29.207Z,49.28
2022-08-14T07:48:58.792Z,49.56
2022-08-14T07:51:36.641Z,49.25
2022-08-14T07:54:09.768Z,49.20
2022-08-14T07:56:48.022Z,48.95
2022-08-14T07:59:41.574Z,48.69
2022-08-14T08:02:18.061Z,49.12
2022-08-14T08:04:53.212Z,48.45
2022-08-14T08:07:29.574Z,48.28
2022-08-14T08:09:59.690Z,48.06
2022-08-14T08:12:30.854Z,45.95
2022-08-14T08:15:03.113Z,44.37
2022-08-14T08:17:38.794Z,43.66
2022-08-14T08:20:20.039Z,43.47
2022-08-14T08:22:49.915Z,43.76
2022-08-14T08:25:23.964Z,43.00
2022-08-14T08:27:58.485Z,42.62
2022-08-14T08:30:26.093Z,43.41
2022-08-14T08:32:55.418Z,43.12
2022-08-14T08:35:24.357Z,41.97
2022-08-14T08:37:53.657Z,42.00
2022-08-14T08:40:36.364Z,41.74
2022-08-14T08:43:29.964Z,41.54
2022-08-14T08:45:58.680Z,41.12
2022-08-14T08:48:31.912Z,39.91
2022-08-14T08:51:05.284Z,39.96
2022-08-14T08:53:33.610Z,39.29
2022-08-14T08:56:01.559Z,40.29
2022-08-14T08:58:29.249Z,40.59
2022-08-14T09:00:57.741Z,40.46
2022-08-14T09:03:27.609Z,37.95
2022-08-14T09:05:56.570Z,37.62
2022-08-14T09:08:26.706Z,37.88
2022-08-14T09:10:59.424Z,38.38
2022-08-14T09:13:27.888Z,37.80
2022-08-14T09:15:58.043Z,38.13
2022-08-14T09:18:27.397Z,37.91
2022-08-14T09:20:58.839Z,37.53
2022-08-14T09:23:34.546Z,38.50
2022-08-14T09:26:05.119Z,37.87
2022-08-14T09:28:48.616Z,37.32
2022-08-14T09:31:18.378Z,36.33
2022-08-14T09:33:57.985Z,34.52
2022-08-14T09:36:32.105Z,32.35
2022-08-14T09:39:22.871Z,31.28
2022-08-14T09:42:21.469Z,31.32
2022-08-14T09:45:13.029Z,32.30
2022-08-14T09:47:54.123Z,32.82
2022-08-14T09:50:21.406Z,32.77
2022-08-14T09:52:58.531Z,32.98
2022-08-14T09:55:27.918Z,33.47
2022-08-14T09:58:06.855Z,34.32
2022-08-14T10:00:41.456Z,33.54
2022-08-14T10:03:09.534Z,33.07
2022-08-14T10:05:39.439Z,33.74
2022-08-14T10:08:17.194Z,33.46
2022-08-14T10:11:02.467Z,33.73
2022-08-14T10:13:37.142Z,33.26
2022-08-14T10:16:25.627Z,34.47
2022-08-14T10:19:02.005Z,34.61
2022-08-14T10:21:30.083Z,34.15
2022-08-14T10:24:08.916Z,34.00
2022-08-14T10:26:37.059Z,33.83
2022-08-14T10:29:19.247Z,34.07
2022-08-14T10:31:56.478Z,34.69
2022-08-14T10:34:29.109Z,34.86
2022-08-14T10:37:05.669Z,34.95
2022-08-14T10:39:46.883Z,35.26
2022-08-14T10:42:39.290Z,35.25
2022-08-14T10:45:23.212Z,34.78
2022-08-14T10:48:06.885Z,35.46
2022-08-14T10:50:38.591Z,35.54
2022-08-14T10:53:08.045Z,35.40
2022-08-14T10:55:45.349Z,35.48
2022-08-14T10:58:14.155Z,35.34
2022-08-14T11:00:56.624Z,35.31
2022-08-14T11:03:26.722Z,35.44
2022-08-14T11:06:14.502Z,34.28
2022-08-14T11:08:42.059Z,35.65
2022-08-14T11:11:13.069Z,33.17
2022-08-14T11:13:43.850Z,34.18
2022-08-14T11:16:11.301Z,34.43
2022-08-14T11:18:44.185Z,33.48
2022-08-14T11:21:14.790Z,32.18
2022-08-14T11:23:44.404Z,33.56
2022-08-14T11:26:13.497Z,33.41
2022-08-14T11:28:48.613Z,33.26
2022-08-14T11:31:23.561Z,33.28
2022-08-14T11:33:57.961Z,33.18
2022-08-14T11:37:02.797Z,33.31
2022-08-14T11:39:22.831Z,33.34
2022-08-14T11:42:07.642Z,32.44
2022-08-14T11:44:53.659Z,32.20
2022-08-14T11:47:24.763Z,32.55
2022-08-14T11:49:52.126Z,32.92
2022-08-14T11:52:19.643Z,33.52
2022-08-14T11:54:57.077Z,33.24
2022-08-14T11:57:24.410Z,33.24
2022-08-14T12:00:00.672Z,33.34
2022-08-14T12:03:01.837Z,33.10
2022-08-14T12:05:15.212Z,33.10
2022-08-14T12:07:49.156Z,32.12
2022-08-14T12:10:27.373Z,31.03
2022-08-14T12:13:17.641Z,31.76
2022-08-14T12:15:46.350Z,31.99
2022-08-14T12:18:19.254Z,32.05
2022-08-14T12:20:52.294Z,31.91
2022-08-14T12:23:22.825Z,31.62
2022-08-14T12:26:01.624Z,32.29
2022-08-14T12:28:59.248Z,31.58
2022-08-14T12:31:26.684Z,31.12
2022-08-14T12:34:01.785Z,32.29
2022-08-14T12:36:30.512Z,31.89
2022-08-14T12:38:58.215Z,31.35
2022-08-14T12:41:28.159Z,31.08
2022-08-14T12:44:05.383Z,31.18
2022-08-14T12:46:33.851Z,31.18
2022-08-14T12:49:13.450Z,32.26
2022-08-14T12:51:45.488Z,32.48
2022-08-14T12:54:28.274Z,33.27
2022-08-14T12:57:05.282Z,33.32
2022-08-14T12:59:37.319Z,33.02
2022-08-14T13:02:21.489Z,33.05
2022-08-14T13:05:02.158Z,32.33
2022-08-14T13:07:32.562Z,33.03
2022-08-14T13:10:00.818Z,33.35
2022-08-14T13:13:11.963Z,33.34
2022-08-14T13:15:38.190Z,33.52
2022-08-14T13:18:10.568Z,32.93
2022-08-14T13:20:37.937Z,33.36
2022-08-14T13:23:08.356Z,33.95
2022-08-14T13:25:38.376Z,33.33
2022-08-14T13:28:10.985Z,33.58
2022-08-14T13:30:41.066Z,33.68
2022-08-14T13:33:14.930Z,33.65
2022-08-14T13:35:48.065Z,33.38
2022-08-14T13:38:25.490Z,33.95
2022-08-14T13:40:56.019Z,33.80
2022-08-14T13:43:24.450Z,33.46
2022-08-14T13:46:00.447Z,33.63
2022-08-14T13:48:33.117Z,33.24
2022-08-14T13:51:04.800Z,32.81
2022-08-14T13:53:38.004Z,32.85
2022-08-14T13:56:06.102Z,31.77
2022-08-14T13:58:35.773Z,32.20
2022-08-14T14:01:04.521Z,31.58
2022-08-14T14:03:35.020Z,31.63
2022-08-14T14:06:02.828Z,31.80
2022-08-14T14:08:46.778Z,32.27
2022-08-14T14:11:16.604Z,32.18
2022-08-14T14:13:45.931Z,32.21
2022-08-14T14:16:15.009Z,32.75
2022-08-14T14:18:48.940Z,32.67
2022-08-14T14:21:21.573Z,32.29
2022-08-14T14:23:49.664Z,32.42
2022-08-14T14:26:23.146Z,32.63
2022-08-14T14:28:56.697Z,30.30
2022-08-14T14:31:30.018Z,30.34
2022-08-14T14:34:00.003Z,30.39
2022-08-14T14:36:28.447Z,30.14
2022-08-14T14:38:57.446Z,30.10
2022-08-14T14:41:25.707Z,30.28
2022-08-14T14:43:54.304Z,29.08
2022-08-14T14:46:36.188Z,28.96
2022-08-14T14:49:07.728Z,28.81
2022-08-14T14:51:36.375Z,28.51
2022-08-14T14:54:08.660Z,28.44
2022-08-14T14:56:48.337Z,27.84
2022-08-14T14:59:19.907Z,28.41
2022-08-14T15:01:51.021Z,28.49
2022-08-14T15:04:20.931Z,28.73
2022-08-14T15:06:49.371Z,28.10
2022-08-14T15:09:17.803Z,27.24
2022-08-14T15:11:47.122Z,27.38
2022-08-14T15:14:54.837Z,27.55
2022-08-14T15:17:02.509Z,27.71
2022-08-14T15:19:29.713Z,27.45
2022-08-14T15:21:58.160Z,27.53
2022-08-14T15:24:26.514Z,27.90
2022-08-14T15:26:58.602Z,27.64
2022-08-14T15:29:27.062Z,28.13
2022-08-14T15:31:54.506Z,27.90
2022-08-14T15:34:44.996Z,28.26
2022-08-14T15:37:13.105Z,28.59
2022-08-14T15:39:44.461Z,28.63
2022-08-14T15:42:15.970Z,29.04
2022-08-14T15:44:57.219Z,29.04
2022-08-14T15:47:30.884Z,29.10
2022-08-14T15:50:00.217Z,28.93
2022-08-14T15:52:32.395Z,29.40
2022-08-14T15:55:04.405Z,29.48
2022-08-14T15:57:32.036Z,29.67
2022-08-14T16:00:37.965Z,29.93
2022-08-14T16:03:08.658Z,30.69
2022-08-14T16:05:38.592Z,30.94
2022-08-14T16:08:06.901Z,31.55
2022-08-14T16:10:54.215Z,32.18
2022-08-14T16:13:39.304Z,31.84
2022-08-14T16:16:47.658Z,32.08
2022-08-14T16:19:03.099Z,32.22
2022-08-14T16:21:31.623Z,32.36
2022-08-14T16:24:27.635Z,32.76
2022-08-14T16:27:00.433Z,32.72
2022-08-14T16:29:30.303Z,32.00
2022-08-14T16:31:59.213Z,32.40
2022-08-14T16:34:46.086Z,32.09
2022-08-14T16:37:19.047Z,31.97
2022-08-14T16:39:48.682Z,32.46
2022-08-14T16:42:39.251Z,32.89
2022-08-14T16:45:04.763Z,33.03
2022-08-14T16:47:35.103Z,33.01
2022-08-14T16:50:08.727Z,32.98
2022-08-14T16:52:44.216Z,32.51
2022-08-14T16:55:29.961Z,32.48
2022-08-14T16:57:58.739Z,32.83
2022-08-14T17:00:28.716Z,33.36
2022-08-14T17:03:04.687Z,33.51
2022-08-14T17:05:40.998Z,33.61
2022-08-14T17:08:32.450Z,33.42
2022-08-14T17:11:12.501Z,33.22
2022-08-14T17:14:01.758Z,33.74
2022-08-14T17:16:37.591Z,33.98
2022-08-14T17:19:14.113Z,34.32
2022-08-14T17:21:46.708Z,34.44
2022-08-14T17:24:56.697Z,34.59
2022-08-14T17:27:05.684Z,34.38
2022-08-14T17:29:34.563Z,34.85
2022-08-14T17:32:28.192Z,34.74
2022-08-14T17:35:01.584Z,35.18
2022-08-14T17:37:34.093Z,35.39
2022-08-14T17:40:15.319Z,35.19
2022-08-14T17:42:53.310Z,35.34
2022-08-14T17:45:42.738Z,35.53
2022-08-14T17:49:10.835Z,35.90
2022-08-14T17:51:23.641Z,35.97
2022-08-14T17:54:02.309Z,35.96
2022-08-14T17:56:33.880Z,36.29
2022-08-14T17:59:05.921Z,36.41
2022-08-14T18:01:36.587Z,36.56
2022-08-14T18:04:24.684Z,36.67
2022-08-14T18:07:06.061Z,36.74
2022-08-14T18:09:40.056Z,37.02
2022-08-14T18:12:32.062Z,37.07
2022-08-14T18:15:16.033Z,37.19
2022-08-14T18:17:44.431Z,37.17
2022-08-14T18:21:23.983Z,37.20
2022-08-14T18:23:08.279Z,37.47
2022-08-14T18:25:42.101Z,37.78
2022-08-14T18:28:16.180Z,37.81
2022-08-14T18:30:57.999Z,37.65
2022-08-14T18:33:26.361Z,37.48
2022-08-14T18:35:58.229Z,37.73
2022-08-14T18:38:43.076Z,38.00
2022-08-14T18:41:37.019Z,38.05
2022-08-14T18:44:10.235Z,38.15
2022-08-14T18:47:00.796Z,38.25
2022-08-14T18:49:33.620Z,38.35
2022-08-14T18:52:18.907Z,38.91
2022-08-14T18:54:48.704Z,38.61
2022-08-14T18:57:27.177Z,38.54
2022-08-14T19:00:32.762Z,38.67
2022-08-14T19:03:01.538Z,38.68
2022-08-14T19:05:39.087Z,38.46
2022-08-14T19:08:35.407Z,38.50
2022-08-14T19:11:05.134Z,38.78
2022-08-14T19:13:48.761Z,38.84
2022-08-14T19:16:22.769Z,39.33
2022-08-14T19:19:00.513Z,39.26
2022-08-14T19:21:29.877Z,39.44
2022-08-14T19:24:27.830Z,39.83
2022-08-14T19:27:16.438Z,40.15
2022-08-14T19:29:48.007Z,40.40
2022-08-14T19:32:40.237Z,40.86
2022-08-14T19:35:18.484Z,40.80
2022-08-14T19:37:54.969Z,41.05
2022-08-14T19:40:33.938Z,41.36
2022-08-14T19:43:01.988Z,41.32
2022-08-14T19:45:33.585Z,41.59
2022-08-14T19:48:01.559Z,41.62
2022-08-14T19:50:40.373Z,42.10
2022-08-14T19:53:12.047Z,41.61
2022-08-14T19:55:47.260Z,41.38
2022-08-14T19:58:15.884Z,41.52
2022-08-14T20:00:54.588Z,41.79
2022-08-14T20:03:24.984Z,41.96
2022-08-14T20:06:05.789Z,42.23
2022-08-14T20:10:59.129Z,42.08
2022-08-14T20:11:43.515Z,42.42
2022-08-14T20:14:20.579Z,42.08
2022-08-14T20:16:55.887Z,42.06
2022-08-14T20:19:28.723Z,41.81
2022-08-14T20:22:35.289Z,42.07
2022-08-14T20:24:54.464Z,42.05
2022-08-14T20:27:34.158Z,42.12
2022-08-14T20:30:29.877Z,42.57
2022-08-14T20:32:57.678Z,41.93
2022-08-14T20:35:35.840Z,42.19
2022-08-14T20:38:31.815Z,42.07
2022-08-14T20:41:07.480Z,42.05
2022-08-14T20:46:39.580Z,42.12
2022-08-14T20:49:12.455Z,41.93
2022-08-14T20:51:43.522Z,42.11
2022-08-14T20:54:34.505Z,41.83
2022-08-14T20:57:17.807Z,42.29
2022-08-14T20:59:48.786Z,42.38
2022-08-14T21:02:29.388Z,42.76
2022-08-14T21:05:00.144Z,42.19
2022-08-14T21:07:36.141Z,41.84
2022-08-14T21:10:33.163Z,42.33
2022-08-14T21:13:27.509Z,41.27
2022-08-14T21:15:56.613Z,39.99
2022-08-14T21:18:30.515Z,40.20
2022-08-14T21:21:00.803Z,40.49
2022-08-14T21:23:32.595Z,41.02
2022-08-14T21:26:00.321Z,40.61
2022-08-14T21:28:30.703Z,41.25
2022-08-14T21:31:03.877Z,41.48
2022-08-14T21:33:31.480Z,41.41
2022-08-14T21:36:00.556Z,41.67
2022-08-14T21:38:37.978Z,41.92
2022-08-14T21:41:42.850Z,41.77
2022-08-14T21:44:18.226Z,42.00
2022-08-14T21:46:53.563Z,42.11
2022-08-14T21:49:23.685Z,42.39
2022-08-14T21:52:00.005Z,42.66
2022-08-14T21:54:50.198Z,42.57
2022-08-14T21:57:53.664Z,42.54
2022-08-14T22:00:35.032Z,42.85
2022-08-14T22:03:01.647Z,42.80
2022-08-14T22:05:29.697Z,42.30
2022-08-14T22:07:57.789Z,42.15
2022-08-14T22:10:25.480Z,42.23
2022-08-14T22:13:00.185Z,42.47
2022-08-14T22:15:29.871Z,42.77
2022-08-14T22:17:58.373Z,42.82
2022-08-14T22:20:28.940Z,43.06
2022-08-14T22:22:57.472Z,43.33
2022-08-14T22:25:33.486Z,43.36
2022-08-14T22:28:09.924Z,43.00
2022-08-14T22:30:37.524Z,43.01
2022-08-14T22:33:05.893Z,42.94
2022-08-14T22:35:37.384Z,42.80
2022-08-14T22:38:37.938Z,42.47
2022-08-14T22:41:14.906Z,42.59
2022-08-14T22:43:40.652Z,42.27
2022-08-14T22:46:14.886Z,42.28
2022-08-14T22:48:48.493Z,42.37
2022-08-14T22:51:17.808Z,42.46
2022-08-14T22:53:46.247Z,42.77
2022-08-14T22:56:20.306Z,42.89
2022-08-14T22:58:53.927Z,42.52
2022-08-14T23:01:57.070Z,43.04
2022-08-14T23:04:34.769Z,43.25
2022-08-14T23:07:05.019Z,43.22
2022-08-14T23:09:34.897Z,43.52
2022-08-14T23:12:04.270Z,43.27
2022-08-14T23:14:32.036Z,43.43
2022-08-14T23:16:59.248Z,43.46
2022-08-14T23:19:33.824Z,43.48
2022-08-14T23:22:03.324Z,43.65
2022-08-14T23:24:31.020Z,43.50
2022-08-14T23:26:58.330Z,43.64
2022-08-14T23:29:25.532Z,43.87
2022-08-14T23:31:59.194Z,44.08
2022-08-14T23:34:26.605Z,44.06
2022-08-14T23:36:57.499Z,44.06
2022-08-14T23:39:29.484Z,43.98
2022-08-14T23:42:02.564Z,44.28
2022-08-14T23:44:35.325Z,44.20
2022-08-14T23:47:10.539Z,44.43
2022-08-14T23:49:56.624Z,44.58
2022-08-14T23:52:56.135Z,44.71
2022-08-14T23:55:14.101Z,44.87
2022-08-14T23:57:44.128Z,45.23
